sensor_id;sensor_type;location;lat;lon;timestamp;temperature;humidity
18067;DHT22;9158;51.528;7.192;2023-02-08T00:00:05;-1.50;99.90
18067;DHT22;9158;51.528;7.192;2023-02-08T00:00:38;-1.50;99.90
18067;DHT22;9158;51.528;7.192;2023-02-08T00:01:11;-1.40;99.90
18067;DHT22;9158;51.528;7.192;2023-02-08T00:01:43;-1.40;99.90
18067;DHT22;9158;51.528;7.192;2023-02-08T00:02:14;-1.40;99.90
18067;DHT22;9158;51.528;7.192;2023-02-08T00:02:46;-1.40;99.90
18067;DHT22;9158;51.528;7.192;2023-02-08T00:03:17;-1.30;99.90
18067;DHT22;9158;51.528;7.192;2023-02-08T00:03:48;-1.30;99.90
18067;DHT22;9158;51.528;7.192;2023-02-08T00:04:20;-1.30;99.90
18067;DHT22;9158;51.528;7.192;2023-02-08T00:04:51;-1.40;99.90
18067;DHT22;9158;51.528;7.192;2023-02-08T00:05:23;-1.40;99.90
18067;DHT22;9158;51.528;7.192;2023-02-08T00:05:54;-1.40;99.90
18067;DHT22;9158;51.528;7.192;2023-02-08T00:06:25;-1.50;99.90
18067;DHT22;9158;51.528;7.192;2023-02-08T00:06:57;-1.50;99.90
18067;DHT22;9158;51.528;7.192;2023-02-08T00:07:28;-1.50;99.90
18067;DHT22;9158;51.528;7.192;2023-02-08T00:07:59;-1.50;99.90
18067;DHT22;9158;51.528;7.192;2023-02-08T00:08:32;-1.60;99.90
18067;DHT22;9158;51.528;7.192;2023-02-08T00:09:03;-1.60;99.90
18067;DHT22;9158;51.528;7.192;2023-02-08T00:09:34;-1.60;99.90
18067;DHT22;9158;51.528;7.192;2023-02-08T00:10:06;-1.60;99.90
18067;DHT22;9158;51.528;7.192;2023-02-08T00:10:37;-1.60;99.90
18067;DHT22;9158;51.528;7.192;2023-02-08T00:11:09;-1.60;99.90
18067;DHT22;9158;51.528;7.192;2023-02-08T00:11:43;-1.60;99.90
18067;DHT22;9158;51.528;7.192;2023-02-08T00:12:14;-1.60;99.90
18067;DHT22;9158;51.528;7.192;2023-02-08T00:12:44;-1.60;99.90
18067;DHT22;9158;51.528;7.192;2023-02-08T00:13:16;-1.60;99.90
18067;DHT22;9158;51.528;7.192;2023-02-08T00:13:48;-1.60;99.90
18067;DHT22;9158;51.528;7.192;2023-02-08T00:14:18;-1.60;99.90
18067;DHT22;9158;51.528;7.192;2023-02-08T00:14:50;-1.60;99.90
18067;DHT22;9158;51.528;7.192;2023-02-08T00:15:21;-1.60;99.90
18067;DHT22;9158;51.528;7.192;2023-02-08T00:15:53;-1.60;99.90
18067;DHT22;9158;51.528;7.192;2023-02-08T00:16:25;-1.60;99.90
18067;DHT22;9158;51.528;7.192;2023-02-08T00:16:56;-1.60;99.90
18067;DHT22;9158;51.528;7.192;2023-02-08T00:17:27;-1.70;99.90
18067;DHT22;9158;51.528;7.192;2023-02-08T00:17:59;-1.70;99.90
18067;DHT22;9158;51.528;7.192;2023-02-08T00:18:30;-1.70;99.90
18067;DHT22;9158;51.528;7.192;2023-02-08T00:19:01;-1.70;99.90
18067;DHT22;9158;51.528;7.192;2023-02-08T00:19:33;-1.70;99.90
18067;DHT22;9158;51.528;7.192;2023-02-08T00:20:04;-1.70;99.90
18067;DHT22;9158;51.528;7.192;2023-02-08T00:20:37;-1.70;99.90
18067;DHT22;9158;51.528;7.192;2023-02-08T00:21:10;-1.70;99.90
18067;DHT22;9158;51.528;7.192;2023-02-08T00:21:41;-1.70;99.90
18067;DHT22;9158;51.528;7.192;2023-02-08T00:22:12;-1.70;99.90
18067;DHT22;9158;51.528;7.192;2023-02-08T00:22:44;-1.70;99.90
18067;DHT22;9158;51.528;7.192;2023-02-08T00:23:15;-1.70;99.90
18067;DHT22;9158;51.528;7.192;2023-02-08T00:23:46;-1.70;99.90
18067;DHT22;9158;51.528;7.192;2023-02-08T00:24:18;-1.70;99.90
18067;DHT22;9158;51.528;7.192;2023-02-08T00:24:49;-1.70;99.90
18067;DHT22;9158;51.528;7.192;2023-02-08T00:25:20;-1.80;99.90
18067;DHT22;9158;51.528;7.192;2023-02-08T00:25:52;-1.80;99.90
18067;DHT22;9158;51.528;7.192;2023-02-08T00:26:23;-1.80;99.90
18067;DHT22;9158;51.528;7.192;2023-02-08T00:26:56;-1.80;99.90
18067;DHT22;9158;51.528;7.192;2023-02-08T00:27:27;-1.80;99.90
18067;DHT22;9158;51.528;7.192;2023-02-08T00:27:58;-1.80;99.90
18067;DHT22;9158;51.528;7.192;2023-02-08T00:28:31;-1.80;99.90
18067;DHT22;9158;51.528;7.192;2023-02-08T00:29:02;-1.80;99.90
18067;DHT22;9158;51.528;7.192;2023-02-08T00:29:33;-1.80;99.90
18067;DHT22;9158;51.528;7.192;2023-02-08T00:30:06;-1.80;99.90
18067;DHT22;9158;51.528;7.192;2023-02-08T00:30:37;-1.80;99.90
18067;DHT22;9158;51.528;7.192;2023-02-08T00:31:08;-1.80;99.90
18067;DHT22;9158;51.528;7.192;2023-02-08T00:31:40;-1.80;99.90
18067;DHT22;9158;51.528;7.192;2023-02-08T00:32:11;-1.80;99.90
18067;DHT22;9158;51.528;7.192;2023-02-08T00:32:43;-1.80;99.90
18067;DHT22;9158;51.528;7.192;2023-02-08T00:33:15;-1.80;99.90
18067;DHT22;9158;51.528;7.192;2023-02-08T00:33:46;-1.80;99.90
18067;DHT22;9158;51.528;7.192;2023-02-08T00:34:19;-1.80;99.90
18067;DHT22;9158;51.528;7.192;2023-02-08T00:34:49;-1.80;99.90
18067;DHT22;9158;51.528;7.192;2023-02-08T00:35:20;-1.80;99.90
18067;DHT22;9158;51.528;7.192;2023-02-08T00:35:57;-1.80;99.90
18067;DHT22;9158;51.528;7.192;2023-02-08T00:36:28;-1.80;99.90
18067;DHT22;9158;51.528;7.192;2023-02-08T00:37:00;-1.80;99.90
18067;DHT22;9158;51.528;7.192;2023-02-08T00:37:31;-1.80;99.90
18067;DHT22;9158;51.528;7.192;2023-02-08T00:38:02;-1.70;99.90
18067;DHT22;9158;51.528;7.192;2023-02-08T00:38:34;-1.70;99.90
18067;DHT22;9158;51.528;7.192;2023-02-08T00:39:05;-1.70;99.90
18067;DHT22;9158;51.528;7.192;2023-02-08T00:39:36;-1.70;99.90
18067;DHT22;9158;51.528;7.192;2023-02-08T00:40:10;-1.70;99.90
18067;DHT22;9158;51.528;7.192;2023-02-08T00:40:41;-1.60;99.90
18067;DHT22;9158;51.528;7.192;2023-02-08T00:41:12;-1.60;99.90
18067;DHT22;9158;51.528;7.192;2023-02-08T00:41:44;-1.60;99.90
18067;DHT22;9158;51.528;7.192;2023-02-08T00:42:16;-1.60;99.90
18067;DHT22;9158;51.528;7.192;2023-02-08T00:42:47;-1.60;99.90
18067;DHT22;9158;51.528;7.192;2023-02-08T00:43:19;-1.60;99.90
18067;DHT22;9158;51.528;7.192;2023-02-08T00:43:50;-1.60;99.90
18067;DHT22;9158;51.528;7.192;2023-02-08T00:44:21;-1.60;99.90
18067;DHT22;9158;51.528;7.192;2023-02-08T00:44:53;-1.60;99.90
18067;DHT22;9158;51.528;7.192;2023-02-08T00:45:24;-1.60;99.90
18067;DHT22;9158;51.528;7.192;2023-02-08T00:45:56;-1.60;99.90
18067;DHT22;9158;51.528;7.192;2023-02-08T00:46:28;-1.60;99.90
18067;DHT22;9158;51.528;7.192;2023-02-08T00:47:00;-1.70;99.90
18067;DHT22;9158;51.528;7.192;2023-02-08T00:47:31;-1.70;99.90
18067;DHT22;9158;51.528;7.192;2023-02-08T00:48:03;-1.70;99.90
18067;DHT22;9158;51.528;7.192;2023-02-08T00:48:34;-1.70;99.90
18067;DHT22;9158;51.528;7.192;2023-02-08T00:49:06;-1.70;99.90
18067;DHT22;9158;51.528;7.192;2023-02-08T00:49:37;-1.70;99.90
18067;DHT22;9158;51.528;7.192;2023-02-08T00:50:09;-1.70;99.90
18067;DHT22;9158;51.528;7.192;2023-02-08T00:50:41;-1.70;99.90
18067;DHT22;9158;51.528;7.192;2023-02-08T00:51:12;-1.60;99.90
18067;DHT22;9158;51.528;7.192;2023-02-08T00:51:45;-1.60;99.90
18067;DHT22;9158;51.528;7.192;2023-02-08T00:52:16;-1.60;99.90
18067;DHT22;9158;51.528;7.192;2023-02-08T00:52:48;-1.60;99.90
18067;DHT22;9158;51.528;7.192;2023-02-08T00:53:19;-1.60;99.90
18067;DHT22;9158;51.528;7.192;2023-02-08T00:53:51;-1.60;99.90
18067;DHT22;9158;51.528;7.192;2023-02-08T00:54:22;-1.50;99.90
18067;DHT22;9158;51.528;7.192;2023-02-08T00:54:54;-1.50;99.90
18067;DHT22;9158;51.528;7.192;2023-02-08T00:55:25;-1.40;99.90
18067;DHT22;9158;51.528;7.192;2023-02-08T00:55:56;-1.40;99.90
18067;DHT22;9158;51.528;7.192;2023-02-08T00:56:29;-1.40;99.90
18067;DHT22;9158;51.528;7.192;2023-02-08T00:57:00;-1.40;99.90
18067;DHT22;9158;51.528;7.192;2023-02-08T00:57:34;-1.40;99.90
18067;DHT22;9158;51.528;7.192;2023-02-08T00:58:06;-1.30;99.90
18067;DHT22;9158;51.528;7.192;2023-02-08T00:58:37;-1.30;99.90
18067;DHT22;9158;51.528;7.192;2023-02-08T00:59:08;-1.30;99.90
18067;DHT22;9158;51.528;7.192;2023-02-08T00:59:40;-1.30;99.90
18067;DHT22;9158;51.528;7.192;2023-02-08T01:00:13;-1.30;99.90
18067;DHT22;9158;51.528;7.192;2023-02-08T01:00:44;-1.20;99.90
18067;DHT22;9158;51.528;7.192;2023-02-08T01:01:16;-1.20;99.90
18067;DHT22;9158;51.528;7.192;2023-02-08T01:01:47;-1.20;99.90
18067;DHT22;9158;51.528;7.192;2023-02-08T01:02:18;-1.20;99.90
18067;DHT22;9158;51.528;7.192;2023-02-08T01:02:50;-1.20;99.90
18067;DHT22;9158;51.528;7.192;2023-02-08T01:03:22;-1.20;99.90
18067;DHT22;9158;51.528;7.192;2023-02-08T01:03:54;-1.20;99.90
18067;DHT22;9158;51.528;7.192;2023-02-08T01:04:26;0.00;1.00
18067;DHT22;9158;51.528;7.192;2023-02-08T01:04:57;-1.20;1.00
18067;DHT22;9158;51.528;7.192;2023-02-08T01:05:28;-1.20;1.00
18067;DHT22;9158;51.528;7.192;2023-02-08T01:06:01;-1.20;1.00
18067;DHT22;9158;51.528;7.192;2023-02-08T01:06:32;-1.20;1.00
18067;DHT22;9158;51.528;7.192;2023-02-08T01:07:03;-1.20;99.90
18067;DHT22;9158;51.528;7.192;2023-02-08T01:07:35;-1.20;99.90
18067;DHT22;9158;51.528;7.192;2023-02-08T01:08:07;-1.20;99.90
18067;DHT22;9158;51.528;7.192;2023-02-08T01:08:38;-1.20;1.00
18067;DHT22;9158;51.528;7.192;2023-02-08T01:09:10;-1.20;1.00
18067;DHT22;9158;51.528;7.192;2023-02-08T01:09:41;-1.20;99.90
18067;DHT22;9158;51.528;7.192;2023-02-08T01:10:12;-1.20;99.90
18067;DHT22;9158;51.528;7.192;2023-02-08T01:10:45;-1.20;99.90
18067;DHT22;9158;51.528;7.192;2023-02-08T01:11:17;-1.20;99.90
18067;DHT22;9158;51.528;7.192;2023-02-08T01:11:49;-1.20;99.90
18067;DHT22;9158;51.528;7.192;2023-02-08T01:12:21;-1.20;99.90
18067;DHT22;9158;51.528;7.192;2023-02-08T01:12:54;-1.20;99.90
18067;DHT22;9158;51.528;7.192;2023-02-08T01:13:25;-1.20;99.90
18067;DHT22;9158;51.528;7.192;2023-02-08T01:13:57;-1.10;99.90
18067;DHT22;9158;51.528;7.192;2023-02-08T01:14:28;-1.10;99.90
18067;DHT22;9158;51.528;7.192;2023-02-08T01:15:00;-1.10;41.80
18067;DHT22;9158;51.528;7.192;2023-02-08T01:15:31;-1.10;1.00
18067;DHT22;9158;51.528;7.192;2023-02-08T01:16:07;-1.10;1.00
18067;DHT22;9158;51.528;7.192;2023-02-08T01:16:39;-1.10;1.00
18067;DHT22;9158;51.528;7.192;2023-02-08T01:17:10;-1.10;1.00
18067;DHT22;9158;51.528;7.192;2023-02-08T01:17:41;-1.10;1.00
18067;DHT22;9158;51.528;7.192;2023-02-08T01:18:13;-1.10;1.00
18067;DHT22;9158;51.528;7.192;2023-02-08T01:18:47;-1.10;1.00
18067;DHT22;9158;51.528;7.192;2023-02-08T01:19:18;-1.10;99.90
18067;DHT22;9158;51.528;7.192;2023-02-08T01:19:50;-1.10;99.90
18067;DHT22;9158;51.528;7.192;2023-02-08T01:20:23;-1.10;99.90
18067;DHT22;9158;51.528;7.192;2023-02-08T01:20:54;-1.10;99.90
18067;DHT22;9158;51.528;7.192;2023-02-08T01:21:27;-1.20;77.30
18067;DHT22;9158;51.528;7.192;2023-02-08T01:21:59;-1.10;1.00
18067;DHT22;9158;51.528;7.192;2023-02-08T01:22:30;-1.10;1.00
18067;DHT22;9158;51.528;7.192;2023-02-08T01:23:04;-1.20;1.00
18067;DHT22;9158;51.528;7.192;2023-02-08T01:23:37;-1.10;1.00
18067;DHT22;9158;51.528;7.192;2023-02-08T01:24:08;-1.10;1.00
18067;DHT22;9158;51.528;7.192;2023-02-08T01:24:41;-1.10;1.00
18067;DHT22;9158;51.528;7.192;2023-02-08T01:25:13;-1.10;1.00
18067;DHT22;9158;51.528;7.192;2023-02-08T01:25:44;-1.10;1.00
18067;DHT22;9158;51.528;7.192;2023-02-08T01:26:16;-1.10;1.00
18067;DHT22;9158;51.528;7.192;2023-02-08T01:26:49;-1.10;1.00
18067;DHT22;9158;51.528;7.192;2023-02-08T01:27:20;-1.10;1.00
18067;DHT22;9158;51.528;7.192;2023-02-08T01:27:53;-1.20;1.00
18067;DHT22;9158;51.528;7.192;2023-02-08T01:28:26;-1.20;1.00
18067;DHT22;9158;51.528;7.192;2023-02-08T01:28:57;-1.20;1.00
18067;DHT22;9158;51.528;7.192;2023-02-08T01:29:30;-1.20;1.00
18067;DHT22;9158;51.528;7.192;2023-02-08T01:30:00;-1.20;1.00
18067;DHT22;9158;51.528;7.192;2023-02-08T01:30:32;-1.20;1.00
18067;DHT22;9158;51.528;7.192;2023-02-08T01:31:04;-1.20;1.00
18067;DHT22;9158;51.528;7.192;2023-02-08T01:31:39;-1.10;1.00
18067;DHT22;9158;51.528;7.192;2023-02-08T01:32:10;-1.10;1.00
18067;DHT22;9158;51.528;7.192;2023-02-08T01:32:41;-1.20;1.00
18067;DHT22;9158;51.528;7.192;2023-02-08T01:33:13;-1.20;1.00
18067;DHT22;9158;51.528;7.192;2023-02-08T01:33:44;-1.20;1.00
18067;DHT22;9158;51.528;7.192;2023-02-08T01:34:15;-1.20;1.00
18067;DHT22;9158;51.528;7.192;2023-02-08T01:34:47;-1.20;1.00
18067;DHT22;9158;51.528;7.192;2023-02-08T01:35:18;-1.20;1.00
18067;DHT22;9158;51.528;7.192;2023-02-08T01:35:50;-1.20;1.00
18067;DHT22;9158;51.528;7.192;2023-02-08T01:36:23;-1.20;1.00
18067;DHT22;9158;51.528;7.192;2023-02-08T01:36:54;-1.20;1.00
18067;DHT22;9158;51.528;7.192;2023-02-08T01:37:27;-1.20;1.00
18067;DHT22;9158;51.528;7.192;2023-02-08T01:37:58;-1.20;1.00
18067;DHT22;9158;51.528;7.192;2023-02-08T01:38:29;-1.20;1.00
18067;DHT22;9158;51.528;7.192;2023-02-08T01:39:03;-1.20;1.00
18067;DHT22;9158;51.528;7.192;2023-02-08T01:39:34;-1.30;1.00
18067;DHT22;9158;51.528;7.192;2023-02-08T01:40:06;-1.30;1.00
18067;DHT22;9158;51.528;7.192;2023-02-08T01:40:38;-1.30;1.00
18067;DHT22;9158;51.528;7.192;2023-02-08T01:41:13;-1.40;1.00
18067;DHT22;9158;51.528;7.192;2023-02-08T01:41:45;-1.40;1.00
18067;DHT22;9158;51.528;7.192;2023-02-08T01:42:19;-1.40;1.00
18067;DHT22;9158;51.528;7.192;2023-02-08T01:42:50;-1.40;1.00
18067;DHT22;9158;51.528;7.192;2023-02-08T01:43:25;-1.30;1.00
18067;DHT22;9158;51.528;7.192;2023-02-08T01:44:03;-1.30;1.00
18067;DHT22;9158;51.528;7.192;2023-02-08T01:45:44;-1.30;1.00
18067;DHT22;9158;51.528;7.192;2023-02-08T01:46:15;-1.30;1.00
18067;DHT22;9158;51.528;7.192;2023-02-08T01:46:47;-1.30;1.00
18067;DHT22;9158;51.528;7.192;2023-02-08T01:47:20;-1.30;99.90
18067;DHT22;9158;51.528;7.192;2023-02-08T01:47:54;-1.40;99.90
18067;DHT22;9158;51.528;7.192;2023-02-08T01:48:29;-1.40;99.90
18067;DHT22;9158;51.528;7.192;2023-02-08T01:49:05;-1.30;1.00
18067;DHT22;9158;51.528;7.192;2023-02-08T01:49:37;-1.30;1.00
18067;DHT22;9158;51.528;7.192;2023-02-08T01:50:09;-1.30;1.00
18067;DHT22;9158;51.528;7.192;2023-02-08T01:50:48;-1.30;1.00
18067;DHT22;9158;51.528;7.192;2023-02-08T01:51:24;-1.30;99.90
18067;DHT22;9158;51.528;7.192;2023-02-08T01:51:59;-1.30;99.90
18067;DHT22;9158;51.528;7.192;2023-02-08T01:52:33;-1.20;99.90
18067;DHT22;9158;51.528;7.192;2023-02-08T01:53:04;-1.30;99.90
18067;DHT22;9158;51.528;7.192;2023-02-08T01:53:36;-1.30;99.90
18067;DHT22;9158;51.528;7.192;2023-02-08T01:54:10;-1.30;99.90
18067;DHT22;9158;51.528;7.192;2023-02-08T01:54:44;-1.30;99.90
18067;DHT22;9158;51.528;7.192;2023-02-08T01:55:18;-1.30;99.90
18067;DHT22;9158;51.528;7.192;2023-02-08T01:55:54;-1.30;99.90
18067;DHT22;9158;51.528;7.192;2023-02-08T01:56:30;-1.30;99.90
18067;DHT22;9158;51.528;7.192;2023-02-08T01:57:04;-1.30;99.90
18067;DHT22;9158;51.528;7.192;2023-02-08T01:57:36;-1.30;99.90
18067;DHT22;9158;51.528;7.192;2023-02-08T01:58:10;-1.30;99.90
18067;DHT22;9158;51.528;7.192;2023-02-08T01:58:47;-1.30;99.90
18067;DHT22;9158;51.528;7.192;2023-02-08T01:59:23;-1.20;99.90
18067;DHT22;9158;51.528;7.192;2023-02-08T02:00:00;-1.30;99.90
18067;DHT22;9158;51.528;7.192;2023-02-08T02:00:32;-1.40;99.90
18067;DHT22;9158;51.528;7.192;2023-02-08T02:01:05;-1.50;99.90
18067;DHT22;9158;51.528;7.192;2023-02-08T02:01:38;-1.60;99.90
18067;DHT22;9158;51.528;7.192;2023-02-08T02:02:11;-1.60;99.90
18067;DHT22;9158;51.528;7.192;2023-02-08T02:02:45;-1.60;99.90
18067;DHT22;9158;51.528;7.192;2023-02-08T02:03:18;-1.70;99.90
18067;DHT22;9158;51.528;7.192;2023-02-08T02:03:50;-1.70;99.90
18067;DHT22;9158;51.528;7.192;2023-02-08T02:04:22;-1.70;99.90
18067;DHT22;9158;51.528;7.192;2023-02-08T02:04:54;-1.70;99.90
18067;DHT22;9158;51.528;7.192;2023-02-08T02:05:28;-1.80;99.90
18067;DHT22;9158;51.528;7.192;2023-02-08T02:06:07;-1.80;99.90
18067;DHT22;9158;51.528;7.192;2023-02-08T02:06:45;-1.80;99.90
18067;DHT22;9158;51.528;7.192;2023-02-08T02:07:20;-1.80;99.90
18067;DHT22;9158;51.528;7.192;2023-02-08T02:07:52;-1.80;99.90
18067;DHT22;9158;51.528;7.192;2023-02-08T02:08:24;-1.70;99.90
18067;DHT22;9158;51.528;7.192;2023-02-08T02:09:04;-1.70;99.90
18067;DHT22;9158;51.528;7.192;2023-02-08T02:09:40;-1.70;99.90
18067;DHT22;9158;51.528;7.192;2023-02-08T02:10:17;-1.70;99.90
18067;DHT22;9158;51.528;7.192;2023-02-08T02:10:50;-1.70;99.90
18067;DHT22;9158;51.528;7.192;2023-02-08T02:11:21;-1.70;99.90
18067;DHT22;9158;51.528;7.192;2023-02-08T02:11:53;-1.70;99.90
18067;DHT22;9158;51.528;7.192;2023-02-08T02:12:26;-1.70;99.90
18067;DHT22;9158;51.528;7.192;2023-02-08T02:13:03;-1.80;99.90
18067;DHT22;9158;51.528;7.192;2023-02-08T02:13:36;-1.80;99.90
18067;DHT22;9158;51.528;7.192;2023-02-08T02:14:10;-1.80;99.90
18067;DHT22;9158;51.528;7.192;2023-02-08T02:14:42;-1.80;99.90
18067;DHT22;9158;51.528;7.192;2023-02-08T02:15:16;-1.80;99.90
18067;DHT22;9158;51.528;7.192;2023-02-08T02:15:49;-1.80;99.90
18067;DHT22;9158;51.528;7.192;2023-02-08T02:16:20;-1.80;99.90
18067;DHT22;9158;51.528;7.192;2023-02-08T02:16:51;-1.80;99.90
18067;DHT22;9158;51.528;7.192;2023-02-08T02:17:23;-1.80;99.90
18067;DHT22;9158;51.528;7.192;2023-02-08T02:17:54;-1.80;99.90
18067;DHT22;9158;51.528;7.192;2023-02-08T02:18:27;-1.80;99.90
18067;DHT22;9158;51.528;7.192;2023-02-08T02:18:59;-1.90;99.90
18067;DHT22;9158;51.528;7.192;2023-02-08T02:19:39;-1.90;99.90
18067;DHT22;9158;51.528;7.192;2023-02-08T02:20:19;-1.90;99.90
18067;DHT22;9158;51.528;7.192;2023-02-08T02:21:10;-2.00;99.90
18067;DHT22;9158;51.528;7.192;2023-02-08T02:21:56;-2.00;99.90
18067;DHT22;9158;51.528;7.192;2023-02-08T02:22:49;-2.10;99.90
18067;DHT22;9158;51.528;7.192;2023-02-08T02:23:49;-2.10;99.90
18067;DHT22;9158;51.528;7.192;2023-02-08T02:24:51;-2.10;1.00
18067;DHT22;9158;51.528;7.192;2023-02-08T02:25:42;-2.10;1.00
18067;DHT22;9158;51.528;7.192;2023-02-08T02:27:53;-2.20;1.00
18067;DHT22;9158;51.528;7.192;2023-02-08T02:30:53;-2.20;1.00
18067;DHT22;9158;51.528;7.192;2023-02-08T02:32:04;-2.20;14.00
18067;DHT22;9158;51.528;7.192;2023-02-08T02:33:07;-2.20;93.90
18067;DHT22;9158;51.528;7.192;2023-02-08T02:33:52;-2.20;99.90
18067;DHT22;9158;51.528;7.192;2023-02-08T02:34:33;-2.30;99.90
18067;DHT22;9158;51.528;7.192;2023-02-08T02:35:14;-2.20;99.90
18067;DHT22;9158;51.528;7.192;2023-02-08T02:35:53;-2.30;99.90
18067;DHT22;9158;51.528;7.192;2023-02-08T02:36:31;-2.30;99.90
18067;DHT22;9158;51.528;7.192;2023-02-08T02:37:14;-2.30;1.00
18067;DHT22;9158;51.528;7.192;2023-02-08T02:37:56;-2.30;1.00
18067;DHT22;9158;51.528;7.192;2023-02-08T02:38:38;-2.30;1.00
18067;DHT22;9158;51.528;7.192;2023-02-08T02:39:19;-2.30;1.00
18067;DHT22;9158;51.528;7.192;2023-02-08T02:39:59;-2.30;1.00
18067;DHT22;9158;51.528;7.192;2023-02-08T02:40:38;-2.30;1.00
18067;DHT22;9158;51.528;7.192;2023-02-08T02:41:18;-2.30;1.00
18067;DHT22;9158;51.528;7.192;2023-02-08T02:42:16;-2.20;1.00
18067;DHT22;9158;51.528;7.192;2023-02-08T02:43:10;-2.20;1.00
18067;DHT22;9158;51.528;7.192;2023-02-08T02:44:01;-2.20;22.80
18067;DHT22;9158;51.528;7.192;2023-02-08T02:44:38;-2.20;43.90
18067;DHT22;9158;51.528;7.192;2023-02-08T02:45:16;-2.20;57.20
18067;DHT22;9158;51.528;7.192;2023-02-08T02:45:57;-2.20;90.30
18067;DHT22;9158;51.528;7.192;2023-02-08T02:46:37;-2.20;99.90
18067;DHT22;9158;51.528;7.192;2023-02-08T02:47:16;-2.20;99.90
18067;DHT22;9158;51.528;7.192;2023-02-08T02:47:53;-2.20;99.90
18067;DHT22;9158;51.528;7.192;2023-02-08T02:48:33;-2.10;99.90
18067;DHT22;9158;51.528;7.192;2023-02-08T02:49:08;-2.10;99.90
18067;DHT22;9158;51.528;7.192;2023-02-08T02:49:47;-2.00;99.90
18067;DHT22;9158;51.528;7.192;2023-02-08T02:50:22;-2.00;99.90
18067;DHT22;9158;51.528;7.192;2023-02-08T02:50:58;-2.00;99.90
18067;DHT22;9158;51.528;7.192;2023-02-08T02:51:37;-1.90;1.00
18067;DHT22;9158;51.528;7.192;2023-02-08T02:52:11;-1.90;1.00
18067;DHT22;9158;51.528;7.192;2023-02-08T02:52:50;-1.90;1.00
18067;DHT22;9158;51.528;7.192;2023-02-08T02:53:30;-1.90;1.00
18067;DHT22;9158;51.528;7.192;2023-02-08T02:54:06;-1.80;1.00
18067;DHT22;9158;51.528;7.192;2023-02-08T02:54:42;-1.80;1.00
18067;DHT22;9158;51.528;7.192;2023-02-08T02:55:17;-1.80;99.90
18067;DHT22;9158;51.528;7.192;2023-02-08T02:55:53;-1.80;99.90
18067;DHT22;9158;51.528;7.192;2023-02-08T02:56:29;-1.80;99.90
18067;DHT22;9158;51.528;7.192;2023-02-08T02:57:03;-1.90;99.90
18067;DHT22;9158;51.528;7.192;2023-02-08T02:57:36;-1.90;99.90
18067;DHT22;9158;51.528;7.192;2023-02-08T02:58:10;-1.90;99.90
18067;DHT22;9158;51.528;7.192;2023-02-08T02:58:43;-1.90;99.90
18067;DHT22;9158;51.528;7.192;2023-02-08T02:59:15;-1.90;99.90
18067;DHT22;9158;51.528;7.192;2023-02-08T02:59:47;-1.90;99.90
18067;DHT22;9158;51.528;7.192;2023-02-08T03:00:22;-1.90;99.90
18067;DHT22;9158;51.528;7.192;2023-02-08T03:00:55;-2.00;99.90
18067;DHT22;9158;51.528;7.192;2023-02-08T03:01:27;-2.00;1.00
18067;DHT22;9158;51.528;7.192;2023-02-08T03:02:01;-2.00;1.00
18067;DHT22;9158;51.528;7.192;2023-02-08T03:02:33;-2.10;1.00
18067;DHT22;9158;51.528;7.192;2023-02-08T03:03:05;-2.00;1.00
18067;DHT22;9158;51.528;7.192;2023-02-08T03:03:37;-2.00;1.00
18067;DHT22;9158;51.528;7.192;2023-02-08T03:04:14;-2.10;1.00
18067;DHT22;9158;51.528;7.192;2023-02-08T03:04:48;-2.10;1.00
18067;DHT22;9158;51.528;7.192;2023-02-08T03:05:20;-2.20;1.00
18067;DHT22;9158;51.528;7.192;2023-02-08T03:05:57;-2.20;1.00
18067;DHT22;9158;51.528;7.192;2023-02-08T03:06:38;-2.20;1.00
18067;DHT22;9158;51.528;7.192;2023-02-08T03:07:17;-2.20;1.00
18067;DHT22;9158;51.528;7.192;2023-02-08T03:08:15;-2.30;1.00
18067;DHT22;9158;51.528;7.192;2023-02-08T03:09:02;-2.30;12.10
18067;DHT22;9158;51.528;7.192;2023-02-08T03:09:55;-2.30;59.10
18067;DHT22;9158;51.528;7.192;2023-02-08T03:10:46;-2.30;99.00
18067;DHT22;9158;51.528;7.192;2023-02-08T03:11:22;-2.30;99.90
18067;DHT22;9158;51.528;7.192;2023-02-08T03:11:59;-2.30;99.90
18067;DHT22;9158;51.528;7.192;2023-02-08T03:12:41;-2.30;35.30
18067;DHT22;9158;51.528;7.192;2023-02-08T03:13:25;-2.40;99.90
18067;DHT22;9158;51.528;7.192;2023-02-08T03:14:06;-2.40;99.90
18067;DHT22;9158;51.528;7.192;2023-02-08T03:14:50;-2.50;99.90
18067;DHT22;9158;51.528;7.192;2023-02-08T03:15:29;-2.50;99.90
18067;DHT22;9158;51.528;7.192;2023-02-08T03:16:14;-2.50;99.90
18067;DHT22;9158;51.528;7.192;2023-02-08T03:17:01;-2.50;99.90
18067;DHT22;9158;51.528;7.192;2023-02-08T03:17:45;-2.50;1.00
18067;DHT22;9158;51.528;7.192;2023-02-08T03:18:26;-2.50;1.00
18067;DHT22;9158;51.528;7.192;2023-02-08T03:19:06;-2.50;1.00
18067;DHT22;9158;51.528;7.192;2023-02-08T03:19:42;-2.50;1.00
18067;DHT22;9158;51.528;7.192;2023-02-08T03:20:20;-2.50;1.00
18067;DHT22;9158;51.528;7.192;2023-02-08T03:21:00;-2.50;1.00
18067;DHT22;9158;51.528;7.192;2023-02-08T03:21:40;-2.50;1.00
18067;DHT22;9158;51.528;7.192;2023-02-08T03:22:15;-2.50;1.00
18067;DHT22;9158;51.528;7.192;2023-02-08T03:22:56;-2.50;1.00
18067;DHT22;9158;51.528;7.192;2023-02-08T03:23:32;-2.50;1.00
18067;DHT22;9158;51.528;7.192;2023-02-08T03:24:15;-2.50;1.00
18067;DHT22;9158;51.528;7.192;2023-02-08T03:24:52;-2.50;1.00
18067;DHT22;9158;51.528;7.192;2023-02-08T03:25:28;-2.50;1.00
18067;DHT22;9158;51.528;7.192;2023-02-08T03:26:06;-2.50;1.00
18067;DHT22;9158;51.528;7.192;2023-02-08T03:26:46;-2.50;25.50
18067;DHT22;9158;51.528;7.192;2023-02-08T03:27:27;-2.50;67.50
18067;DHT22;9158;51.528;7.192;2023-02-08T03:28:06;-2.50;99.90
18067;DHT22;9158;51.528;7.192;2023-02-08T03:28:42;-2.50;99.90
18067;DHT22;9158;51.528;7.192;2023-02-08T03:29:24;-2.40;99.90
18067;DHT22;9158;51.528;7.192;2023-02-08T03:30:00;-2.50;99.90
18067;DHT22;9158;51.528;7.192;2023-02-08T03:30:37;-2.50;99.90
18067;DHT22;9158;51.528;7.192;2023-02-08T03:31:19;-2.50;99.90
18067;DHT22;9158;51.528;7.192;2023-02-08T03:31:58;-2.50;99.90
18067;DHT22;9158;51.528;7.192;2023-02-08T03:32:37;-2.50;99.90
18067;DHT22;9158;51.528;7.192;2023-02-08T03:33:12;-2.50;99.90
18067;DHT22;9158;51.528;7.192;2023-02-08T03:33:48;-2.50;99.90
18067;DHT22;9158;51.528;7.192;2023-02-08T03:34:27;-2.50;99.90
18067;DHT22;9158;51.528;7.192;2023-02-08T03:35:02;-2.60;99.90
18067;DHT22;9158;51.528;7.192;2023-02-08T03:35:38;-2.60;99.90
18067;DHT22;9158;51.528;7.192;2023-02-08T03:36:18;-2.60;99.90
18067;DHT22;9158;51.528;7.192;2023-02-08T03:36:54;-2.60;1.00
18067;DHT22;9158;51.528;7.192;2023-02-08T03:37:27;-2.60;1.00
18067;DHT22;9158;51.528;7.192;2023-02-08T03:38:03;-2.50;1.00
18067;DHT22;9158;51.528;7.192;2023-02-08T03:38:39;-2.50;1.00
18067;DHT22;9158;51.528;7.192;2023-02-08T03:39:14;-2.50;1.00
18067;DHT22;9158;51.528;7.192;2023-02-08T03:39:48;-2.50;1.00
18067;DHT22;9158;51.528;7.192;2023-02-08T03:40:26;-2.50;1.00
18067;DHT22;9158;51.528;7.192;2023-02-08T03:40:59;-2.50;1.00
18067;DHT22;9158;51.528;7.192;2023-02-08T03:41:35;-2.50;1.00
18067;DHT22;9158;51.528;7.192;2023-02-08T03:42:11;-2.50;1.00
18067;DHT22;9158;51.528;7.192;2023-02-08T03:42:45;-2.50;1.00
18067;DHT22;9158;51.528;7.192;2023-02-08T03:43:22;-2.50;1.00
18067;DHT22;9158;51.528;7.192;2023-02-08T03:43:56;-2.60;1.00
18067;DHT22;9158;51.528;7.192;2023-02-08T03:44:32;-2.60;1.00
18067;DHT22;9158;51.528;7.192;2023-02-08T03:45:08;-2.60;1.00
18067;DHT22;9158;51.528;7.192;2023-02-08T03:45:47;-2.60;1.00
18067;DHT22;9158;51.528;7.192;2023-02-08T03:46:21;-2.70;1.00
18067;DHT22;9158;51.528;7.192;2023-02-08T03:46:56;-2.60;1.00
18067;DHT22;9158;51.528;7.192;2023-02-08T03:47:32;-2.60;73.00
18067;DHT22;9158;51.528;7.192;2023-02-08T03:48:09;-2.70;44.50
18067;DHT22;9158;51.528;7.192;2023-02-08T03:48:45;-2.60;97.20
18067;DHT22;9158;51.528;7.192;2023-02-08T03:49:22;-2.70;1.00